Terminal Aerodrome Forecast
Issued by NWS

Home | Current Version | Previous Version | Text Only | Print | Product List | Glossary On
Versions: 1 2 3 4 5 6 7 8 9 10 11 12 13 14
000
FTUS44 KLZK 242300
TAFLLQ
TAF
KLLQ 242328Z 2500/2524 15008KT P6SM VCSH SCT025 OVC050
     FM250300 16006KT P6SM VCSH SCT025 OVC050
     FM250700 17004KT 5SM BR VCSH BKN015 OVC040
     FM251500 17007KT P6SM VCSH BKN025 OVC050=

USA.gov is the U.S. government's official web portal to all federal, state and local government web resources and services.